Time;durP1;ratioP1;P1;durP2;ratioP2;P2;SDS_P1;SDS_P2;PMS_P1;PMS_P2;Temp;Humidity;BMP_temperature;BMP_pressure;BME280_temperature;BME280_humidity;BME280_pressure;Samples;Min_cycle;Max_cycle;Signal;HPM_P1;HPM_P2
2023/01/02 00:01:36;;;;;;;10.00;6.60;;;10.70;99.90;;;;;;5074993;28;20186;-73
2023/01/02 00:04:02;;;;;;;10.10;6.25;;;10.70;99.90;;;;;;5074724;28;20536;-72
2023/01/02 00:06:32;;;;;;;8.95;6.35;;;10.70;99.90;;;;;;5074608;28;20086;-72
2023/01/02 00:08:58;;;;;;;9.60;6.35;;;10.70;99.90;;;;;;5074622;28;20040;-73
2023/01/02 00:11:23;;;;;;;11.27;7.03;;;10.70;99.90;;;;;;5074864;28;20050;-73
2023/01/02 00:13:49;;;;;;;14.48;7.15;;;10.70;99.90;;;;;;5074512;28;20509;-73
2023/01/02 00:16:14;;;;;;;12.10;7.53;;;10.70;99.90;;;;;;5057759;28;20082;-72
2023/01/02 00:18:40;;;;;;;13.38;7.15;;;10.70;99.90;;;;;;5074617;28;20036;-73
2023/01/02 00:21:06;;;;;;;11.10;7.43;;;10.70;99.90;;;;;;5074372;28;20037;-73
2023/01/02 00:23:32;;;;;;;11.13;7.10;;;10.70;99.90;;;;;;5074344;28;20048;-73
2023/01/02 00:25:57;;;;;;;13.60;7.85;;;10.80;99.90;;;;;;5074560;28;20098;-72
2023/01/02 00:28:23;;;;;;;14.98;8.40;;;10.80;99.90;;;;;;5074179;28;20493;-72
2023/01/02 00:30:48;;;;;;;13.82;8.32;;;10.80;99.90;;;;;;5075484;28;20037;-72
2023/01/02 00:33:14;;;;;;;16.02;8.27;;;10.80;99.90;;;;;;5074491;28;20567;-72
2023/01/02 00:35:40;;;;;;;12.48;9.07;;;10.80;99.90;;;;;;5074401;28;20063;-73
2023/01/02 00:38:06;;;;;;;14.27;8.75;;;10.80;99.90;;;;;;5074013;28;20493;-72
2023/01/02 00:40:32;;;;;;;15.85;9.02;;;10.80;99.90;;;;;;5073941;28;20040;-72
2023/01/02 00:42:57;;;;;;;11.93;8.75;;;10.80;99.90;;;;;;5074018;28;20066;-72
2023/01/02 00:45:23;;;;;;;12.95;9.25;;;10.80;99.90;;;;;;5073908;28;20051;-72
2023/01/02 00:47:48;;;;;;;16.13;10.52;;;10.90;99.90;;;;;;5074024;28;20115;-72
2023/01/02 00:50:15;;;;;;;17.85;10.52;;;10.80;99.90;;;;;;5074168;28;20055;-73
2023/01/02 00:52:40;;;;;;;18.52;11.30;;;10.90;99.90;;;;;;5073756;28;20048;-73
2023/01/02 00:55:06;;;;;;;19.10;11.63;;;10.80;99.90;;;;;;5073773;28;20052;-72
2023/01/02 00:57:32;;;;;;;19.67;12.55;;;10.90;99.90;;;;;;5073668;28;20032;-72
2023/01/02 00:59:57;;;;;;;18.80;12.60;;;10.90;99.90;;;;;;5073767;28;20044;-72
2023/01/02 01:02:23;;;;;;;19.42;13.27;;;10.90;99.90;;;;;;5073634;28;20116;-73
2023/01/02 01:04:48;;;;;;;22.10;13.55;;;10.90;99.90;;;;;;5073588;28;20408;-72
2023/01/02 01:07:14;;;;;;;22.80;13.73;;;10.80;99.90;;;;;;5073426;28;20123;-72
2023/01/02 01:09:40;;;;;;;22.48;13.57;;;10.80;99.90;;;;;;5073659;28;20054;-72
2023/01/02 01:12:05;;;;;;;22.88;13.48;;;10.80;99.90;;;;;;5073409;28;20447;-72
2023/01/02 01:14:31;;;;;;;24.23;14.40;;;10.90;99.90;;;;;;5073617;28;20093;-72
2023/01/02 01:16:57;;;;;;;20.38;13.98;;;10.80;99.90;;;;;;5073238;28;20509;-72
2023/01/02 01:19:22;;;;;;;22.75;13.98;;;10.90;99.90;;;;;;5073220;28;20421;-73
2023/01/02 01:21:48;;;;;;;23.75;15.15;;;10.80;99.90;;;;;;5073210;28;20040;-73
2023/01/02 01:24:14;;;;;;;22.20;14.15;;;10.90;99.90;;;;;;5073419;28;20052;-72
2023/01/02 01:26:40;;;;;;;24.20;15.07;;;10.90;99.90;;;;;;5073057;28;20040;-72
2023/01/02 01:29:05;;;;;;;25.52;14.70;;;10.90;99.90;;;;;;5074328;28;20102;-73
2023/01/02 01:31:31;;;;;;;20.50;13.82;;;10.80;99.90;;;;;;5073003;28;20046;-72
2023/01/02 01:33:57;;;;;;;24.25;14.80;;;10.90;99.90;;;;;;5074482;28;20067;-72
2023/01/02 01:36:23;;;;;;;21.55;12.80;;;10.80;99.90;;;;;;5056465;28;20489;-72
2023/01/02 01:38:50;;;;;;;19.05;12.73;;;10.90;99.90;;;;;;5073853;28;20119;-72
2023/01/02 01:41:18;;;;;;;21.23;13.05;;;10.90;99.90;;;;;;5073063;28;20036;-72
2023/01/02 01:43:53;;;;;;;18.65;13.02;;;10.90;99.90;;;;;;5073025;28;20147;-73
2023/01/02 01:46:30;;;;;;;23.02;12.32;;;10.90;99.90;;;;;;5072686;28;20041;-72
2023/01/02 01:49:04;;;;;;;19.83;11.82;;;10.90;99.90;;;;;;5072650;28;20408;-72
2023/01/02 01:51:33;;;;;;;14.93;12.07;;;10.90;99.90;;;;;;5072959;28;20072;-72
2023/01/02 01:54:05;;;;;;;21.90;11.48;;;10.90;99.90;;;;;;5072826;28;20040;-72
2023/01/02 01:56:34;;;;;;;18.42;13.00;;;10.90;99.90;;;;;;5056184;28;20036;-72
2023/01/02 01:59:01;;;;;;;14.05;10.57;;;11.00;99.90;;;;;;5072447;28;20041;-73
2023/01/02 02:01:26;;;;;;;19.95;11.65;;;10.90;99.90;;;;;;5072442;28;20033;-73
2023/01/02 02:03:52;;;;;;;17.90;10.52;;;11.00;99.90;;;;;;5072691;28;20036;-72
2023/01/02 02:06:18;;;;;;;19.85;9.98;;;11.00;99.90;;;;;;5072306;28;20536;-72
2023/01/02 02:09:05;;;;;;;20.23;11.13;;;10.90;99.90;;;;;;5072591;28;20036;-73
2023/01/02 02:11:31;;;;;;;18.38;10.88;;;11.00;99.90;;;;;;5072307;28;20044;-73
2023/01/02 02:13:59;;;;;;;16.45;10.07;;;11.00;99.90;;;;;;5072260;28;20040;-73
2023/01/02 02:16:48;;;;;;;17.88;10.35;;;11.00;99.90;;;;;;5072388;28;20048;-72
2023/01/02 02:19:42;;;;;;;16.88;10.45;;;11.00;99.90;;;;;;5072109;28;20501;-73
2023/01/02 02:22:48;;;;;;;17.80;10.40;;;11.00;99.90;;;;;;5071743;28;20040;-73
2023/01/02 02:25:34;;;;;;;19.88;10.70;;;11.00;99.90;;;;;;5072423;28;20036;-73
2023/01/02 02:28:26;;;;;;;17.52;10.85;;;11.00;99.90;;;;;;5072323;28;20086;-72
2023/01/02 02:30:56;;;;;;;18.10;10.48;;;11.00;99.90;;;;;;5049424;28;20159;-73
2023/01/02 02:33:32;;;;;;;21.15;11.35;;;11.10;99.90;;;;;;5071986;28;20036;-73
2023/01/02 02:36:06;;;;;;;20.52;11.10;;;11.00;99.90;;;;;;5072041;28;20455;-73
2023/01/02 02:38:50;;;;;;;23.30;11.18;;;11.00;99.90;;;;;;5055233;28;20497;-73
2023/01/02 02:41:45;;;;;;;25.30;10.40;;;11.00;99.90;;;;;;5072219;28;20084;-73
2023/01/02 02:44:35;;;;;;;20.42;10.13;;;11.10;99.90;;;;;;5072137;28;20040;-73
2023/01/02 02:47:12;;;;;;;14.60;9.45;;;11.10;99.90;;;;;;5056014;28;20036;-72
2023/01/02 02:49:50;;;;;;;16.50;9.40;;;11.10;99.90;;;;;;5071688;28;20052;-73
2023/01/02 02:52:35;;;;;;;17.13;9.50;;;11.10;99.90;;;;;;5071842;28;20048;-73
2023/01/02 02:55:26;;;;;;;22.83;9.65;;;11.10;99.90;;;;;;5072063;28;20049;-73
2023/01/02 02:57:52;;;;;;;20.65;10.13;;;11.10;99.90;;;;;;5071760;28;20127;-73
2023/01/02 03:00:21;;;;;;;17.13;9.32;;;11.10;99.90;;;;;;5071734;28;20093;-73
2023/01/02 03:02:47;;;;;;;18.55;9.75;;;11.10;99.90;;;;;;5071650;28;20417;-72
2023/01/02 03:05:27;;;;;;;19.30;9.23;;;11.10;99.90;;;;;;5071662;28;20044;-73
2023/01/02 03:07:58;;;;;;;18.17;9.32;;;11.00;99.90;;;;;;5071614;28;20386;-72
2023/01/02 03:10:31;;;;;;;14.43;8.88;;;11.10;99.90;;;;;;5071619;28;20040;-72
2023/01/02 03:13:17;;;;;;;20.15;9.48;;;11.10;99.90;;;;;;5071890;28;20075;-73
2023/01/02 03:15:59;;;;;;;19.83;8.90;;;11.10;99.90;;;;;;5071589;28;20043;-72
2023/01/02 03:18:34;;;;;;;17.33;9.20;;;11.10;99.90;;;;;;5071784;28;20051;-73
2023/01/02 03:21:13;;;;;;;20.52;9.65;;;11.10;99.90;;;;;;5071525;28;20037;-73
2023/01/02 03:23:44;;;;;;;16.35;9.55;;;11.20;99.90;;;;;;5071525;28;20043;-73
2023/01/02 03:26:13;;;;;;;17.48;9.93;;;11.10;99.90;;;;;;5071459;28;20036;-72
2023/01/02 03:28:41;;;;;;;15.82;9.93;;;11.20;99.90;;;;;;5071441;28;20043;-73
2023/01/02 03:31:11;;;;;;;14.77;9.38;;;11.20;99.90;;;;;;5071381;28;20505;-73
2023/01/02 03:33:44;;;;;;;22.58;9.82;;;11.10;99.90;;;;;;5071628;28;20041;-73
2023/01/02 03:36:18;;;;;;;19.20;9.68;;;11.20;99.90;;;;;;5075723;28;20424;-72
2023/01/02 03:38:53;;;;;;;24.40;9.80;;;11.10;99.90;;;;;;5075473;28;20052;-73
2023/01/02 03:41:26;;;;;;;17.45;9.38;;;11.20;99.90;;;;;;5075172;28;20044;-72
2023/01/02 03:43:53;;;;;;;18.42;9.25;;;11.20;99.90;;;;;;5075086;28;20037;-73
2023/01/02 03:46:31;;;;;;;15.88;9.70;;;11.20;99.90;;;;;;5074993;28;20642;-72
2023/01/02 03:49:15;;;;;;;18.48;9.30;;;11.20;99.90;;;;;;5074875;28;20048;-73
2023/01/02 03:51:41;;;;;;;15.65;9.10;;;11.20;99.90;;;;;;5074968;28;20037;-73
2023/01/02 03:54:09;;;;;;;17.52;9.60;;;11.20;99.90;;;;;;5074924;28;20158;-73
2023/01/02 03:57:00;;;;;;;14.75;9.45;;;11.20;99.90;;;;;;5075040;28;20123;-72
2023/01/02 03:59:51;;;;;;;16.58;9.60;;;11.20;99.90;;;;;;5074739;28;20048;-73
2023/01/02 04:02:16;;;;;;;15.48;9.27;;;11.20;99.90;;;;;;5075048;28;20458;-73
2023/01/02 04:04:52;;;;;;;19.55;10.75;;;11.20;99.90;;;;;;5074961;28;20540;-72
2023/01/02 04:07:26;;;;;;;17.08;9.10;;;11.20;99.90;;;;;;5074873;28;20086;-72
2023/01/02 04:09:52;;;;;;;18.75;9.02;;;11.20;99.90;;;;;;5074931;28;20037;-73
2023/01/02 04:12:22;;;;;;;17.98;9.82;;;11.20;99.90;;;;;;5057909;28;20455;-72
2023/01/02 04:14:56;;;;;;;23.90;10.02;;;11.30;99.90;;;;;;5074801;28;20076;-72
2023/01/02 04:17:25;;;;;;;22.15;9.60;;;11.30;99.90;;;;;;5057793;28;20507;-72
2023/01/02 04:20:14;;;;;;;17.45;9.80;;;11.30;99.90;;;;;;5057732;28;20562;-73
2023/01/02 04:22:46;;;;;;;22.23;9.98;;;11.20;99.90;;;;;;5074416;28;20413;-73
2023/01/02 04:25:14;;;;;;;18.63;8.98;;;11.30;99.90;;;;;;5074372;28;20040;-73
2023/01/02 04:27:53;;;;;;;16.92;9.93;;;11.30;99.90;;;;;;5074499;28;20110;-73
2023/01/02 04:30:18;;;;;;;18.90;10.35;;;11.30;99.90;;;;;;5074281;28;20098;-73
2023/01/02 04:32:46;;;;;;;14.90;8.75;;;11.30;99.90;;;;;;5074456;28;20053;-73
2023/01/02 04:35:20;;;;;;;16.40;8.80;;;11.30;99.90;;;;;;5074401;28;20063;-73
2023/01/02 04:37:46;;;;;;;20.40;9.85;;;11.30;99.90;;;;;;5074121;28;20123;-73
2023/01/02 04:40:23;;;;;;;14.65;8.73;;;11.30;99.90;;;;;;5073998;28;20033;-73
2023/01/02 04:42:50;;;;;;;15.40;8.77;;;11.30;99.90;;;;;;5057577;28;20043;-72
2023/01/02 04:45:15;;;;;;;21.83;9.65;;;11.30;99.90;;;;;;5073583;28;20040;-72
2023/01/02 04:47:41;;;;;;;16.73;8.85;;;11.30;99.90;;;;;;5074123;28;20024;-73
2023/01/02 04:50:07;;;;;;;21.10;9.27;;;11.40;99.90;;;;;;5073808;28;20488;-73
2023/01/02 04:52:33;;;;;;;14.77;8.82;;;11.40;99.90;;;;;;5073798;28;20125;-73
2023/01/02 04:54:59;;;;;;;17.35;9.18;;;11.40;99.90;;;;;;5073787;28;20080;-73
2023/01/02 04:57:24;;;;;;;18.10;9.80;;;11.40;99.90;;;;;;5073687;28;20051;-73
2023/01/02 04:59:50;;;;;;;18.73;8.63;;;11.40;99.90;;;;;;5057129;28;20110;-73
2023/01/02 05:02:16;;;;;;;15.50;9.13;;;11.40;99.90;;;;;;5073601;28;20044;-72
2023/01/02 05:04:41;;;;;;;18.83;10.07;;;11.50;99.90;;;;;;5073884;28;20072;-72
2023/01/02 05:07:07;;;;;;;15.40;8.90;;;11.40;99.90;;;;;;5073458;28;20485;-72
2023/01/02 05:09:33;;;;;;;16.85;8.48;;;11.40;99.90;;;;;;5073709;28;20128;-72
2023/01/02 05:11:58;;;;;;;18.63;8.63;;;11.40;99.90;;;;;;5073424;28;20075;-73
2023/01/02 05:14:24;;;;;;;13.63;8.48;;;11.50;99.90;;;;;;5073648;28;20131;-73
2023/01/02 05:16:49;;;;;;;21.23;8.57;;;11.40;99.90;;;;;;5073509;28;20489;-73
2023/01/02 05:19:15;;;;;;;16.13;8.43;;;11.50;99.90;;;;;;5073144;28;20051;-73
2023/01/02 05:24:25;;;;;;;16.55;8.43;;;11.50;99.90;;;;;;5073211;28;20044;-72
2023/01/02 05:26:52;;;;;;;21.17;9.23;;;11.50;99.90;;;;;;5073361;28;20033;-72
2023/01/02 05:29:18;;;;;;;19.63;9.45;;;11.50;99.90;;;;;;5073100;28;20040;-73
2023/01/02 05:31:44;;;;;;;18.00;9.52;;;11.60;99.90;;;;;;5073004;28;20033;-73
2023/01/02 05:34:13;;;;;;;22.10;9.35;;;11.50;99.90;;;;;;5072983;28;20051;-72
2023/01/02 05:36:38;;;;;;;16.02;9.13;;;11.50;99.90;;;;;;5072902;28;20045;-72
2023/01/02 05:39:10;;;;;;;17.15;9.95;;;11.50;99.90;;;;;;5073139;28;20044;-73
2023/01/02 05:41:38;;;;;;;15.25;8.90;;;11.50;99.90;;;;;;5073165;28;20408;-73
2023/01/02 05:44:04;;;;;;;19.20;9.07;;;11.50;99.90;;;;;;5072798;28;20520;-73
2023/01/02 05:46:30;;;;;;;17.75;9.68;;;11.50;99.90;;;;;;5072700;28;20089;-73
2023/01/02 05:48:55;;;;;;;15.13;8.73;;;11.50;99.90;;;;;;5055885;28;20174;-73
2023/01/02 05:51:21;;;;;;;20.13;10.07;;;11.60;99.90;;;;;;5072663;28;20045;-73
2023/01/02 05:53:46;;;;;;;24.35;10.52;;;11.50;99.90;;;;;;5072641;28;20056;-72
2023/01/02 05:56:14;;;;;;;19.90;9.20;;;11.50;99.90;;;;;;5072235;28;20119;-73
2023/01/02 05:58:43;;;;;;;19.67;10.55;;;11.60;99.90;;;;;;5073687;28;20048;-73
2023/01/02 06:01:14;;;;;;;22.30;10.50;;;11.50;99.90;;;;;;5072377;28;20045;-73
2023/01/02 06:03:44;;;;;;;16.77;9.27;;;11.60;99.90;;;;;;5055932;28;20064;-73
2023/01/02 06:06:10;;;;;;;19.63;10.13;;;11.60;99.90;;;;;;5072292;28;20493;-72
2023/01/02 06:08:37;;;;;;;22.17;11.07;;;11.60;99.90;;;;;;5072621;28;20040;-73
2023/01/02 06:11:04;;;;;;;20.88;10.85;;;11.60;99.90;;;;;;5072606;28;20036;-73
2023/01/02 06:13:31;;;;;;;25.30;11.65;;;11.60;99.90;;;;;;5072587;28;20099;-73
2023/01/02 06:15:58;;;;;;;22.13;10.77;;;11.60;99.90;;;;;;5072255;28;20040;-73
2023/01/02 06:18:24;;;;;;;23.38;11.55;;;11.60;99.90;;;;;;5072216;28;20076;-73
2023/01/02 06:20:50;;;;;;;19.80;10.65;;;11.60;99.90;;;;;;5072244;28;20409;-74
2023/01/02 06:23:15;;;;;;;21.08;11.52;;;11.60;99.90;;;;;;5072263;28;20489;-74
2023/01/02 06:25:41;;;;;;;20.05;9.50;;;11.60;99.90;;;;;;5072611;28;20127;-73
2023/01/02 06:28:07;;;;;;;20.20;11.18;;;11.60;99.90;;;;;;5072420;28;20485;-73
2023/01/02 06:30:33;;;;;;;17.35;10.57;;;11.60;99.90;;;;;;5072064;28;20479;-73
2023/01/02 06:32:59;;;;;;;17.13;9.35;;;11.60;99.90;;;;;;5071978;28;20048;-72
2023/01/02 06:35:24;;;;;;;14.88;7.63;;;11.60;99.90;;;;;;5071976;28;20040;-73
2023/01/02 06:37:50;;;;;;;13.35;8.77;;;11.70;99.90;;;;;;5073325;28;20040;-73
2023/01/02 06:40:16;;;;;;;14.70;8.65;;;11.70;99.90;;;;;;5071858;28;20051;-73
2023/01/02 06:42:44;;;;;;;11.77;7.10;;;11.70;99.90;;;;;;5072179;28;20040;-72
2023/01/02 06:45:10;;;;;;;11.73;8.07;;;11.70;99.90;;;;;;5071862;28;20046;-72
2023/01/02 06:47:36;;;;;;;13.57;7.63;;;11.70;99.90;;;;;;5071899;28;20408;-73
2023/01/02 06:50:01;;;;;;;14.52;8.63;;;11.70;99.90;;;;;;5071799;28;20055;-73
2023/01/02 06:52:28;;;;;;;11.77;7.65;;;11.70;99.90;;;;;;5071928;28;20041;-73
2023/01/02 06:54:54;;;;;;;14.55;7.85;;;11.70;99.90;;;;;;5071744;28;20475;-73
2023/01/02 06:57:19;;;;;;;12.57;8.27;;;11.80;99.90;;;;;;5071967;28;20493;-73
2023/01/02 06:59:45;;;;;;;15.70;8.07;;;11.80;99.90;;;;;;5071676;28;20048;-73
2023/01/02 07:02:12;;;;;;;12.35;8.40;;;11.70;99.90;;;;;;5071970;28;20062;-73
2023/01/02 07:04:38;;;;;;;10.52;6.68;;;11.80;99.90;;;;;;5071685;28;20120;-72
2023/01/02 07:07:04;;;;;;;10.52;5.68;;;11.70;99.90;;;;;;5071664;28;20605;-73
2023/01/02 07:09:30;;;;;;;9.90;4.65;;;11.70;99.90;;;;;;5074867;28;20048;-73
2023/01/02 07:11:57;;;;;;;5.47;3.65;;;11.70;99.90;;;;;;5075745;28;20089;-73
2023/01/02 07:14:23;;;;;;;1.67;1.30;;;11.70;99.90;;;;;;5075692;28;20082;-73
2023/01/02 07:16:49;;;;;;;1.30;0.90;;;11.60;99.90;;;;;;5075854;28;20040;-72
2023/01/02 07:19:14;;;;;;;1.92;0.80;;;11.50;99.90;;;;;;5058884;28;20508;-73
2023/01/02 07:21:40;;;;;;;1.10;0.60;;;11.40;99.90;;;;;;5075551;28;20044;-73
2023/01/02 07:24:10;;;;;;;1.08;0.70;;;11.30;99.90;;;;;;5075480;28;20036;-72
2023/01/02 07:26:35;;;;;;;2.33;1.05;;;11.20;99.90;;;;;;5075408;28;20038;-72
2023/01/02 07:29:01;;;;;;;3.55;1.10;;;11.10;99.90;;;;;;5075444;28;20038;-72
2023/01/02 07:31:28;;;;;;;1.88;1.40;;;11.10;99.90;;;;;;5075701;28;20068;-72
2023/01/02 07:33:54;;;;;;;2.88;1.92;;;11.00;99.90;;;;;;5075359;28;20048;-73
2023/01/02 07:36:23;;;;;;;2.47;1.95;;;10.90;99.90;;;;;;5075257;28;20456;-72
2023/01/02 07:38:53;;;;;;;3.15;2.80;;;10.90;99.90;;;;;;5075292;28;20404;-72
2023/01/02 07:41:22;;;;;;;4.05;3.65;;;10.80;99.90;;;;;;5075113;28;20075;-73
2023/01/02 07:43:48;;;;;;;4.07;3.67;;;10.80;99.90;;;;;;5075142;28;20425;-72
2023/01/02 07:46:17;;;;;;;5.40;4.05;;;10.70;99.90;;;;;;5074991;28;20040;-72
2023/01/02 07:48:43;;;;;;;7.00;5.20;;;10.60;99.90;;;;;;5058222;28;20161;-73
2023/01/02 07:51:09;;;;;;;5.80;4.85;;;10.60;99.90;;;;;;5076507;28;20040;-73
2023/01/02 07:53:37;;;;;;;6.63;5.07;;;10.60;99.90;;;;;;5074979;28;20044;-72
2023/01/02 07:56:03;;;;;;;5.68;4.45;;;10.50;99.90;;;;;;5074938;28;20044;-72
2023/01/02 07:58:29;;;;;;;6.40;4.65;;;10.50;99.90;;;;;;5075036;28;20577;-73
2023/01/02 08:00:54;;;;;;;5.20;3.58;;;10.40;99.90;;;;;;5076258;28;20545;-73
2023/01/02 08:03:21;;;;;;;4.28;3.20;;;10.40;99.90;;;;;;5074800;28;20130;-72
2023/01/02 08:05:46;;;;;;;4.50;2.85;;;10.30;99.90;;;;;;5074709;28;20041;-72
2023/01/02 08:08:12;;;;;;;4.90;2.42;;;10.20;99.90;;;;;;5074650;28;20066;-73
2023/01/02 08:10:38;;;;;;;4.10;2.28;;;10.10;99.90;;;;;;5075885;28;20047;-72
2023/01/02 08:13:04;;;;;;;3.85;2.60;;;10.00;99.90;;;;;;5074877;28;20056;-73
2023/01/02 08:15:30;;;;;;;6.10;3.10;;;10.00;99.90;;;;;;5074543;28;20050;-72
2023/01/02 08:17:56;;;;;;;4.47;2.70;;;10.00;99.90;;;;;;5074444;28;20123;-73
2023/01/02 08:20:23;;;;;;;4.25;1.98;;;9.90;99.90;;;;;;5073747;28;20045;-73
2023/01/02 08:22:49;;;;;;;3.50;2.20;;;9.80;99.90;;;;;;5074713;28;20405;-73
2023/01/02 08:25:14;;;;;;;5.57;1.98;;;9.80;99.90;;;;;;5074556;28;20033;-73
2023/01/02 08:27:40;;;;;;;3.60;2.03;;;9.70;99.90;;;;;;5074539;28;20049;-73
2023/01/02 08:30:06;;;;;;;3.70;1.90;;;9.70;99.90;;;;;;5074285;28;20055;-73
2023/01/02 08:32:36;;;;;;;2.25;1.20;;;9.60;99.90;;;;;;5074282;28;20094;-72
2023/01/02 08:35:03;;;;;;;3.28;0.85;;;9.60;99.90;;;;;;5074391;28;20036;-72
2023/01/02 08:37:28;;;;;;;2.60;0.70;;;9.50;99.90;;;;;;5074039;28;20040;-72
2023/01/02 08:39:54;;;;;;;2.53;0.70;;;9.50;99.90;;;;;;5074011;28;20458;-72
2023/01/02 08:42:19;;;;;;;1.20;0.77;;;9.40;99.90;;;;;;5073981;28;20133;-72
2023/01/02 08:44:45;;;;;;;1.63;0.70;;;9.40;99.90;;;;;;5074235;28;20044;-72
2023/01/02 08:47:11;;;;;;;2.20;0.80;;;9.30;99.90;;;;;;5074128;28;20036;-72
2023/01/02 08:49:36;;;;;;;1.92;0.95;;;9.30;99.90;;;;;;5073864;28;20390;-73
2023/01/02 08:52:02;;;;;;;2.00;1.05;;;9.30;99.90;;;;;;5073902;28;20048;-73
2023/01/02 08:54:27;;;;;;;2.72;1.10;;;9.20;99.90;;;;;;5073817;28;20040;-73
2023/01/02 08:56:53;;;;;;;3.45;1.10;;;9.30;99.90;;;;;;5074015;28;20049;-72
2023/01/02 08:59:18;;;;;;;3.30;1.40;;;9.20;99.90;;;;;;5057022;28;20416;-72
2023/01/02 09:01:44;;;;;;;3.85;1.48;;;9.20;99.90;;;;;;5073705;28;20044;-72
2023/01/02 09:04:10;;;;;;;2.13;1.10;;;9.30;99.90;;;;;;5073658;28;20079;-72
2023/01/02 09:06:36;;;;;;;4.00;1.50;;;9.30;99.90;;;;;;5073596;28;20036;-73
2023/01/02 09:09:03;;;;;;;3.67;1.58;;;9.30;99.90;;;;;;5073613;28;20039;-73
2023/01/02 09:11:37;;;;;;;2.88;1.10;;;9.20;99.90;;;;;;5073806;28;20071;-72
2023/01/02 09:14:04;;;;;;;2.63;1.40;;;9.20;99.90;;;;;;5073567;28;20043;-73
2023/01/02 09:16:30;;;;;;;4.00;1.40;;;9.10;99.90;;;;;;5073823;28;20048;-72
2023/01/02 09:18:58;;;;;;;2.88;1.17;;;9.10;99.90;;;;;;5073322;28;20044;-72
2023/01/02 09:21:23;;;;;;;2.28;1.10;;;9.10;99.90;;;;;;5073338;28;20085;-72
2023/01/02 09:23:49;;;;;;;3.50;1.40;;;9.20;99.90;;;;;;5073449;28;20120;-72
2023/01/02 09:26:15;;;;;;;2.83;1.40;;;9.10;99.90;;;;;;5073501;28;20080;-72
2023/01/02 09:28:41;;;;;;;4.32;1.55;;;9.20;99.90;;;;;;5073464;28;20037;-73
2023/01/02 09:31:09;;;;;;;3.55;1.73;;;9.20;99.90;;;;;;5072618;28;20052;-73
2023/01/02 09:33:35;;;;;;;1.85;1.40;;;9.10;99.90;;;;;;5072532;28;20044;-73
2023/01/02 09:36:02;;;;;;;4.38;1.80;;;9.10;99.90;;;;;;5073262;28;20040;-73
2023/01/02 09:38:28;;;;;;;2.72;1.70;;;9.20;99.90;;;;;;5073505;28;20120;-73
2023/01/02 09:40:54;;;;;;;2.92;1.80;;;9.20;99.90;;;;;;5073009;28;20128;-73
2023/01/02 09:43:42;;;;;;;6.80;1.95;;;9.20;99.90;;;;;;5073130;28;20468;-72
2023/01/02 09:46:19;;;;;;;3.95;1.80;;;9.20;99.90;;;;;;5066310;28;20044;-72
2023/01/02 09:48:45;;;;;;;3.53;1.95;;;9.20;99.90;;;;;;5072804;28;20098;-73
2023/01/02 09:51:11;;;;;;;3.92;2.13;;;9.20;99.90;;;;;;5073137;28;20037;-74
2023/01/02 09:53:37;;;;;;;2.72;1.60;;;9.20;99.90;;;;;;5072928;28;20040;-75
2023/01/02 09:56:21;;;;;;;3.38;1.73;;;9.20;99.90;;;;;;5072679;28;20520;-75
2023/01/02 09:59:06;;;;;;;2.78;1.60;;;9.30;99.90;;;;;;5072614;28;20092;-74
2023/01/02 10:02:07;;;;;;;2.20;1.52;;;9.20;99.90;;;;;;5072585;28;20040;-75
2023/01/02 10:05:09;;;;;;;6.03;1.40;;;9.20;99.90;;;;;;5035371;28;20033;-75
2023/01/02 10:07:48;;;;;;;5.97;1.50;;;9.30;99.90;;;;;;5072670;28;20059;-75
2023/01/02 10:10:23;;;;;;;2.08;1.30;;;9.20;99.90;;;;;;5055758;28;20047;-74
2023/01/02 10:13:09;;;;;;;3.42;1.50;;;9.30;99.90;;;;;;5072631;28;20045;-73
2023/01/02 10:15:35;;;;;;;2.53;1.60;;;9.30;99.90;;;;;;5072748;28;20142;-73
2023/01/02 10:18:18;;;;;;;4.15;1.33;;;9.20;99.90;;;;;;5073148;28;20048;-74
2023/01/02 10:20:51;;;;;;;2.70;1.42;;;9.30;99.90;;;;;;5072873;28;20047;-74
2023/01/02 10:23:22;;;;;;;;;;;9.30;99.90;;;;;;5073469;28;20051;-75
2023/01/02 10:25:57;;;;;;;4.38;1.60;;;9.20;99.90;;;;;;5077354;28;19923;-75
2023/01/02 10:28:36;;;;;;;4.60;2.17;;;9.20;99.90;;;;;;5077404;28;20043;-75
2023/01/02 10:31:18;;;;;;;6.43;1.90;;;9.20;99.90;;;;;;5074062;28;20127;-75
2023/01/02 10:33:58;;;;;;;4.35;1.40;;;9.20;99.90;;;;;;5073229;28;20040;-75
2023/01/02 10:36:25;;;;;;;3.38;1.50;;;9.20;99.90;;;;;;5072196;28;20050;-75
2023/01/02 10:38:55;;;;;;;3.00;1.35;;;9.10;99.90;;;;;;5072729;28;20071;-76
2023/01/02 10:41:21;;;;;;;5.88;1.40;;;9.20;99.90;;;;;;5072693;28;20037;-76
2023/01/02 10:43:53;;;;;;;2.92;1.30;;;9.10;99.90;;;;;;5072331;28;20047;-75
2023/01/02 10:46:18;;;;;;;2.95;1.02;;;9.20;99.90;;;;;;5072266;28;20051;-74
2023/01/02 10:48:45;;;;;;;3.72;1.27;;;9.20;99.90;;;;;;5072075;28;20048;-75
2023/01/02 10:51:14;;;;;;;3.38;1.13;;;9.20;99.90;;;;;;5071958;28;20494;-75
2023/01/02 10:53:39;;;;;;;5.22;1.00;;;9.20;99.90;;;;;;5055924;28;20505;-74
2023/01/02 10:56:13;;;;;;;4.88;1.38;;;9.20;99.90;;;;;;5072150;28;20051;-75
2023/01/02 10:58:45;;;;;;;3.92;1.13;;;9.20;99.90;;;;;;5055561;28;20040;-75
2023/01/02 11:01:13;;;;;;;5.88;1.40;;;9.30;99.90;;;;;;5071805;28;20436;-75
2023/01/02 11:03:39;;;;;;;3.50;1.50;;;9.30;99.90;;;;;;5072320;28;20041;-75
2023/01/02 11:06:21;;;;;;;3.97;1.33;;;9.30;99.90;;;;;;5071800;28;20036;-75
2023/01/02 11:08:58;;;;;;;6.05;1.70;;;9.40;99.90;;;;;;5071732;28;20377;-75
2023/01/02 11:11:24;;;;;;;5.00;1.48;;;9.40;99.90;;;;;;5071974;28;20064;-75
2023/01/02 11:13:54;;;;;;;4.53;1.80;;;9.40;99.90;;;;;;5071614;28;20488;-75
2023/01/02 11:16:22;;;;;;;6.15;1.60;;;9.40;99.90;;;;;;5054816;28;20044;-74
2023/01/02 11:18:51;;;;;;;5.22;1.40;;;9.50;99.90;;;;;;5071583;28;20040;-75
2023/01/02 11:21:29;;;;;;;6.07;1.73;;;9.50;99.90;;;;;;5054837;28;20037;-76
2023/01/02 11:24:04;;;;;;;6.80;1.60;;;9.60;99.90;;;;;;5071593;28;20044;-76
2023/01/02 11:26:31;;;;;;;7.32;1.58;;;9.70;99.90;;;;;;5071637;28;20121;-73
2023/01/02 11:29:08;;;;;;;4.63;1.77;;;9.80;99.90;;;;;;5071714;28;20051;-74
2023/01/02 11:31:34;;;;;;;6.15;1.85;;;9.80;99.90;;;;;;5071847;28;20165;-76
2023/01/02 11:34:09;;;;;;;6.10;1.88;;;9.80;99.90;;;;;;5071421;28;20085;-76
2023/01/02 11:36:35;;;;;;;5.53;1.52;;;9.90;99.90;;;;;;5054777;28;20040;-75
2023/01/02 11:39:21;;;;;;;5.70;2.13;;;9.90;99.90;;;;;;5071475;28;20401;-76
2023/01/02 11:44:37;;;;;;;7.78;2.22;;;9.90;99.90;;;;;;5071325;28;20040;-76
2023/01/02 11:47:04;;;;;;;9.02;1.70;;;9.90;99.90;;;;;;5071431;28;20044;-72
2023/01/02 11:49:41;;;;;;;5.68;1.83;;;9.90;99.90;;;;;;5071100;28;20075;-73
2023/01/02 11:52:15;;;;;;;6.95;1.73;;;9.90;99.90;;;;;;5071328;28;20119;-72
2023/01/02 11:54:48;;;;;;;9.32;1.60;;;9.90;99.90;;;;;;5071902;28;20064;-72
2023/01/02 11:57:28;;;;;;;;;;;9.80;99.90;;;;;;5075301;28;20036;-72
2023/01/02 11:59:56;;;;;;;7.53;2.30;;;9.70;99.90;;;;;;5074783;28;20412;-72
2023/01/02 12:02:29;;;;;;;6.60;1.42;;;9.70;99.90;;;;;;5075924;28;20067;-72
2023/01/02 12:04:55;;;;;;;7.05;1.17;;;9.70;99.90;;;;;;5074773;28;20431;-72
2023/01/02 12:07:40;;;;;;;7.75;1.30;;;9.70;99.90;;;;;;5074909;28;20047;-72
2023/01/02 12:10:05;;;;;;;5.78;1.63;;;9.70;99.90;;;;;;5058273;28;20040;-72
2023/01/02 12:12:54;;;;;;;7.70;1.70;;;9.70;99.90;;;;;;5058203;28;20046;-72
2023/01/02 12:15:50;;;;;;;10.57;1.63;;;9.80;99.90;;;;;;5074864;28;20121;-71
2023/01/02 12:18:31;;;;;;;9.38;1.60;;;9.70;99.90;;;;;;5074895;28;20045;-72
2023/01/02 12:21:28;;;;;;;14.00;2.00;;;9.60;99.90;;;;;;5074542;28;20047;-74
2023/01/02 12:24:18;;;;;;;10.68;2.22;;;9.60;99.90;;;;;;5075140;28;20401;-72
2023/01/02 12:27:26;;;;;;;8.60;1.80;;;9.60;99.90;;;;;;5074602;28;20040;-72
2023/01/02 12:30:03;;;;;;;9.30;1.92;;;9.60;99.90;;;;;;5036764;28;20041;-72
2023/01/02 12:33:06;;;;;;;8.35;1.70;;;9.50;99.90;;;;;;5036728;28;20501;-71
2023/01/02 12:35:52;;;;;;;6.32;1.60;;;9.50;99.90;;;;;;5037058;28;20494;-72
2023/01/02 12:38:46;;;;;;;10.88;1.92;;;9.50;99.90;;;;;;5036728;28;20049;-72
2023/01/02 12:41:46;;;;;;;9.75;1.88;;;9.50;99.90;;;;;;5054164;28;20045;-72
2023/01/02 12:44:24;;;;;;;11.00;1.90;;;9.70;99.90;;;;;;5037051;28;20053;-72
2023/01/02 12:47:34;;;;;;;13.38;1.90;;;10.10;99.90;;;;;;5036458;28;20044;-71
2023/01/02 12:50:11;;;;;;;11.93;2.10;;;10.20;99.90;;;;;;5026005;28;20100;-72
2023/01/02 12:52:52;;;;;;;9.70;1.55;;;10.00;99.90;;;;;;5037234;28;20136;-72
2023/01/02 12:55:46;;;;;;;11.88;1.83;;;9.90;99.90;;;;;;5036719;28;20489;-71
2023/01/02 12:58:35;;;;;;;14.43;1.95;;;9.90;99.90;;;;;;5036281;28;20041;-72
2023/01/02 13:01:03;;;;;;;10.88;1.80;;;9.70;99.90;;;;;;5060022;28;20049;-72
2023/01/02 13:03:40;;;;;;;12.60;1.90;;;9.70;99.90;;;;;;5073766;28;20040;-72
2023/01/02 13:06:32;;;;;;;8.15;1.48;;;9.70;99.90;;;;;;5073737;28;20036;-72
2023/01/02 13:09:17;;;;;;;12.23;2.13;;;9.70;99.90;;;;;;5057375;28;20131;-72